Time;durP1;ratioP1;P1;durP2;ratioP2;P2;SDS_P1;SDS_P2;PMS_P1;PMS_P2;Temp;Humidity;BMP_temperature;BMP_pressure;BME280_temperature;BME280_humidity;BME280_pressure;Samples;Min_cycle;Max_cycle;Signal;HPM_P1;HPM_P2
2023/01/15 10:12:54;;;;;;;32.80;31.30;;;6.60;99.90;;;;;;5124782;27;1223866;-77
2023/01/15 10:15:37;;;;;;;32.07;30.67;;;7.60;99.90;;;;;;5145832;27;20697;-77
2023/01/15 10:18:06;;;;;;;32.10;30.70;;;7.50;99.90;;;;;;5146072;27;20772;-78
2023/01/15 10:20:45;;;;;;;32.47;31.10;;;7.30;99.90;;;;;;5145585;27;20600;-78
2023/01/15 10:23:39;;;;;;;32.20;30.70;;;7.20;99.90;;;;;;5145295;27;20447;-78
2023/01/15 10:26:17;;;;;;;32.30;30.90;;;7.40;99.90;;;;;;5138311;27;20448;-80
2023/01/15 10:28:57;;;;;;;33.87;32.30;;;7.50;99.90;;;;;;5145360;27;20633;-78
2023/01/15 10:31:35;;;;;;;34.73;33.17;;;7.50;99.90;;;;;;5145088;27;20490;-77
2023/01/15 10:34:21;;;;;;;33.57;32.07;;;7.50;99.90;;;;;;5144966;27;20454;-76
2023/01/15 10:36:55;;;;;;;33.83;32.37;;;7.50;99.90;;;;;;5144824;27;20451;-77
2023/01/15 10:39:30;;;;;;;31.50;30.10;;;7.50;99.90;;;;;;5144959;27;20450;-77
2023/01/15 10:42:05;;;;;;;35.37;33.80;;;7.50;99.90;;;;;;5144843;27;20466;-77
2023/01/15 10:44:43;;;;;;;31.33;29.93;;;7.40;99.90;;;;;;5144287;27;20443;-77
2023/01/15 10:47:14;;;;;;;32.30;30.90;;;7.40;99.90;;;;;;5145049;27;20792;-78
2023/01/15 10:49:42;;;;;;;32.97;31.57;;;7.40;99.90;;;;;;5144292;27;20479;-78
2023/01/15 10:52:22;;;;;;;32.90;31.30;;;7.30;99.90;;;;;;5144579;27;20459;-78
2023/01/15 10:54:53;;;;;;;34.57;33.03;;;7.20;99.90;;;;;;5144998;27;20995;-77
2023/01/15 10:57:26;;;;;;;32.27;30.87;;;7.10;99.90;;;;;;5145023;27;20452;-77
2023/01/15 10:59:57;;;;;;;32.30;30.90;;;6.90;99.90;;;;;;5144702;27;20550;-77
2023/01/15 11:02:29;;;;;;;32.23;30.83;;;6.70;99.90;;;;;;5144314;27;20466;-77
2023/01/15 11:04:56;;;;;;;34.27;32.87;;;6.60;99.90;;;;;;5144261;27;20443;-76
2023/01/15 11:07:28;;;;;;;33.40;31.90;;;6.50;99.90;;;;;;5144644;27;20448;-74
2023/01/15 11:09:55;;;;;;;32.33;30.93;;;6.40;99.90;;;;;;5144529;27;20455;-75
2023/01/15 11:21:00;;;;;;;30.73;29.47;;;6.10;99.90;;;;;;5133000;27;20534;-77
2023/01/15 11:23:26;;;;;;;30.63;29.40;;;6.10;99.90;;;;;;5130773;27;20443;-77
2023/01/15 11:25:55;;;;;;;28.30;27.20;;;6.00;99.90;;;;;;5130864;27;20770;-77
2023/01/15 11:28:34;;;;;;;29.60;28.40;;;6.00;99.90;;;;;;5130741;27;20436;-76
2023/01/15 11:31:02;;;;;;;29.80;28.60;;;5.90;99.90;;;;;;5130668;27;20796;-76
2023/01/15 11:33:30;;;;;;;30.07;28.87;;;6.00;99.90;;;;;;5130670;27;20512;-77
2023/01/15 11:35:59;;;;;;;32.67;31.27;;;5.80;99.90;;;;;;5129970;27;20448;-76
2023/01/15 11:38:28;;;;;;;30.50;29.30;;;5.80;99.90;;;;;;5130658;27;20452;-78
2023/01/15 11:40:58;;;;;;;30.37;29.17;;;5.80;99.90;;;;;;5130897;27;20445;-77
2023/01/15 11:51:55;;;;;;;30.50;29.30;;;6.20;99.90;;;;;;5130465;27;20520;-78
2023/01/15 11:54:24;;;;;;;29.90;28.70;;;6.10;99.90;;;;;;5130615;27;20460;-78
2023/01/15 11:56:51;;;;;;;30.70;29.10;;;6.20;99.90;;;;;;5130203;27;20448;-77
2023/01/15 11:59:19;;;;;;;31.33;30.03;;;6.20;99.90;;;;;;5129785;27;20449;-77
2023/01/15 12:01:58;;;;;;;30.37;29.10;;;6.20;99.90;;;;;;5129863;27;20445;-77
2023/01/15 12:04:38;;;;;;;29.57;28.27;;;6.10;99.90;;;;;;5130386;27;20537;-76
2023/01/15 12:07:11;;;;;;;29.00;27.80;;;6.10;99.90;;;;;;5129884;27;20448;-76
2023/01/15 12:09:57;;;;;;;28.17;27.07;;;6.20;99.90;;;;;;5130281;27;20444;-76
2023/01/15 12:12:32;;;;;;;29.63;28.53;;;6.20;99.90;;;;;;5129825;27;20491;-75
2023/01/15 12:15:16;;;;;;;27.50;26.50;;;6.00;99.90;;;;;;5129909;27;20800;-75
2023/01/15 12:18:18;;;;;;;28.77;27.67;;;6.00;99.90;;;;;;5129683;27;20452;-75
2023/01/15 12:21:01;;;;;;;27.03;25.93;;;6.00;99.90;;;;;;5130051;27;20620;-74
2023/01/15 12:24:03;;;;;;;26.50;25.50;;;6.10;99.90;;;;;;5129636;27;20452;-75
2023/01/15 12:26:32;;;;;;;26.20;25.20;;;6.10;99.90;;;;;;5114515;27;20474;-74
2023/01/15 12:29:06;;;;;;;24.77;23.87;;;6.10;99.90;;;;;;5129324;27;20444;-74
2023/01/15 12:31:37;;;;;;;24.50;23.53;;;5.90;99.90;;;;;;5129446;27;20480;-73
2023/01/15 12:34:12;;;;;;;22.13;21.33;;;5.90;99.90;;;;;;5129323;27;20437;-74
2023/01/15 12:36:44;;;;;;;21.57;20.77;;;6.00;99.90;;;;;;5128891;27;20444;-74
2023/01/15 12:39:17;;;;;;;20.53;19.80;;;5.90;99.90;;;;;;5129251;27;20539;-73
2023/01/15 12:47:27;;;;;;;18.90;18.20;;;6.00;99.90;;;;;;5129618;27;20499;-73
2023/01/15 12:49:59;;;;;;;16.80;16.20;;;6.10;99.90;;;;;;5129716;27;20828;-73
2023/01/15 12:52:33;;;;;;;14.73;14.23;;;6.20;99.90;;;;;;5129043;27;20487;-74
2023/01/15 12:55:09;;;;;;;14.70;14.20;;;6.20;99.90;;;;;;5128785;27;20459;-73
2023/01/15 12:57:39;;;;;;;14.80;14.30;;;6.20;99.90;;;;;;5129425;27;20443;-73
2023/01/15 13:00:14;;;;;;;12.93;12.53;;;6.30;99.90;;;;;;5128696;27;20445;-73
2023/01/15 13:02:56;;;;;;;12.13;11.73;;;6.30;99.90;;;;;;5128723;27;20934;-73
2023/01/15 13:05:29;;;;;;;12.17;11.77;;;6.40;99.90;;;;;;5128763;27;20475;-73
2023/01/15 13:08:01;;;;;;;11.93;11.53;;;6.50;99.90;;;;;;5128578;27;20479;-74
2023/01/15 13:10:30;;;;;;;11.33;10.90;;;6.60;99.90;;;;;;5128252;27;20455;-75
2023/01/15 13:13:02;;;;;;;11.40;11.00;;;6.60;99.90;;;;;;5128349;27;20492;-73
2023/01/15 13:15:34;;;;;;;11.80;11.40;;;6.70;99.90;;;;;;5128547;27;20452;-74
2023/01/15 13:18:11;;;;;;;11.10;10.70;;;6.70;99.90;;;;;;5128426;27;20841;-75
2023/01/15 13:20:46;;;;;;;11.70;11.30;;;6.80;99.90;;;;;;5128677;27;20517;-74
2023/01/15 13:23:32;;;;;;;11.50;11.00;;;6.90;99.90;;;;;;5128758;27;20446;-74
2023/01/15 13:26:11;;;;;;;11.20;10.90;;;6.90;99.90;;;;;;5129009;27;20642;-74
2023/01/15 13:28:51;;;;;;;11.10;10.80;;;7.00;99.90;;;;;;5128470;27;20815;-76
2023/01/15 13:31:39;;;;;;;11.40;11.00;;;7.00;99.90;;;;;;5128172;27;20484;-74
2023/01/15 13:34:13;;;;;;;11.17;10.87;;;6.90;99.90;;;;;;5128570;27;20501;-75
2023/01/15 13:36:45;;;;;;;11.97;11.57;;;6.90;99.90;;;;;;5128016;27;20443;-75
2023/01/15 13:39:18;;;;;;;12.00;11.60;;;6.90;99.90;;;;;;5128226;27;20459;-75
2023/01/15 13:44:47;;;;;;;11.50;11.00;;;6.80;99.90;;;;;;5091117;27;20792;-74
2023/01/15 13:47:20;;;;;;;10.70;10.40;;;6.80;99.90;;;;;;5127732;27;20967;-76
2023/01/15 13:49:48;;;;;;;11.60;11.30;;;6.90;99.90;;;;;;5128273;27;20446;-74
2023/01/15 13:52:26;;;;;;;10.97;10.57;;;6.80;99.90;;;;;;5127482;27;20978;-75
2023/01/15 13:54:56;;;;;;;12.00;11.50;;;6.80;99.90;;;;;;5128147;27;20444;-74
2023/01/15 13:57:31;;;;;;;12.97;12.10;;;6.80;99.90;;;;;;5128419;27;20829;-75
2023/01/15 13:59:58;;;;;;;11.50;11.10;;;6.90;99.90;;;;;;5127871;28;20455;-76
2023/01/15 14:02:27;;;;;;;11.20;10.70;;;6.90;99.90;;;;;;5127713;28;20455;-75
2023/01/15 14:04:54;;;;;;;10.23;9.93;;;6.90;99.90;;;;;;5128081;28;20461;-75
2023/01/15 14:07:32;;;;;;;10.30;10.00;;;6.90;99.90;;;;;;5128224;28;20452;-76
2023/01/15 14:10:19;;;;;;;10.20;9.80;;;6.90;99.90;;;;;;5127618;28;20440;-75
2023/01/15 14:12:55;;;;;;;10.50;10.10;;;6.90;99.90;;;;;;5127793;28;20480;-76
2023/01/15 14:15:31;;;;;;;10.03;9.63;;;7.00;99.90;;;;;;5127809;28;20443;-75
2023/01/15 14:18:15;;;;;;;9.47;9.17;;;7.10;99.90;;;;;;5127571;28;20451;-76
2023/01/15 14:21:06;;;;;;;10.23;9.93;;;7.20;99.90;;;;;;5127779;28;20444;-75
2023/01/15 14:23:52;;;;;;;10.23;9.93;;;7.50;99.90;;;;;;5128312;28;20445;-75
2023/01/15 14:26:25;;;;;;;26.67;9.80;;;7.70;99.90;;;;;;5127881;28;20460;-76
2023/01/15 14:29:03;;;;;;;9.40;9.00;;;8.00;99.90;;;;;;5127837;28;20449;-76
2023/01/15 14:31:57;;;;;;;9.90;9.53;;;8.20;99.90;;;;;;5127555;28;20527;-76
2023/01/15 14:34:27;;;;;;;10.37;9.77;;;8.00;99.90;;;;;;5128091;28;20440;-76
2023/01/15 14:36:59;;;;;;;9.20;8.60;;;8.10;99.90;;;;;;5127654;28;20444;-76
2023/01/15 14:39:35;;;;;;;9.40;9.00;;;8.00;99.90;;;;;;5128000;28;20440;-76
2023/01/15 14:45:01;;;;;;;10.07;9.37;;;7.80;99.90;;;;;;5128398;28;20436;-76
2023/01/15 14:47:34;;;;;;;10.47;9.77;;;7.80;99.90;;;;;;5128616;27;20443;-76
2023/01/15 14:50:24;;;;;;;9.70;9.40;;;7.80;99.90;;;;;;5131510;27;20827;-75
2023/01/15 14:52:51;;;;;;;9.63;9.30;;;7.90;99.90;;;;;;5132068;27;20515;-76
2023/01/15 14:55:20;;;;;;;9.90;9.50;;;8.00;99.90;;;;;;5131528;27;20452;-76
2023/01/15 14:57:56;;;;;;;12.53;11.80;;;7.80;99.90;;;;;;5131335;27;20452;-75
2023/01/15 15:00:26;;;;;;;9.37;9.07;;;7.60;99.90;;;;;;5131650;27;20454;-75
2023/01/15 15:02:52;;;;;;;9.80;9.30;;;7.60;99.90;;;;;;5131826;27;20455;-75
2023/01/15 15:05:23;;;;;;;9.87;9.57;;;7.50;99.90;;;;;;5130846;27;20464;-75
2023/01/15 15:07:52;;;;;;;9.87;9.20;;;7.50;99.90;;;;;;5131215;27;20547;-75
2023/01/15 15:10:25;;;;;;;8.73;8.30;;;7.30;99.90;;;;;;5131304;27;20501;-75
2023/01/15 15:12:57;;;;;;;9.30;9.00;;;7.20;99.90;;;;;;5131004;27;20496;-75
2023/01/15 15:15:37;;;;;;;9.50;9.20;;;7.10;99.90;;;;;;5131009;27;20440;-75
2023/01/15 15:18:13;;;;;;;10.30;9.90;;;7.00;99.90;;;;;;5131168;27;20447;-75
2023/01/15 15:20:47;;;;;;;10.00;9.50;;;6.90;99.90;;;;;;5131547;27;20459;-75
2023/01/15 15:23:20;;;;;;;9.83;9.53;;;6.80;99.90;;;;;;5131137;27;20487;-75
2023/01/15 15:25:55;;;;;;;10.50;9.90;;;6.80;99.90;;;;;;5130989;27;20455;-75
2023/01/15 15:28:22;;;;;;;10.77;10.27;;;6.80;99.90;;;;;;5130913;27;20482;-75
2023/01/15 15:30:49;;;;;;;9.50;9.10;;;6.70;99.90;;;;;;5130927;27;20970;-75
2023/01/15 15:33:19;;;;;;;10.77;10.30;;;6.70;99.90;;;;;;5130524;27;20561;-75
2023/01/15 15:35:49;;;;;;;11.17;10.67;;;6.60;99.90;;;;;;5130427;27;20445;-75
2023/01/15 15:38:18;;;;;;;10.10;9.70;;;6.50;99.90;;;;;;5130544;27;20464;-75
2023/01/15 15:40:49;;;;;;;9.77;9.47;;;6.50;99.90;;;;;;5130402;27;20830;-75
2023/01/15 15:49:08;;;;;;;10.17;9.87;;;6.30;99.90;;;;;;5130846;27;20448;-75
2023/01/15 15:51:38;;;;;;;9.20;8.90;;;6.20;99.90;;;;;;5130135;27;20456;-74
2023/01/15 15:54:17;;;;;;;9.90;9.50;;;6.20;99.90;;;;;;5130509;27;20487;-74
2023/01/15 15:56:57;;;;;;;9.23;8.83;;;6.20;99.90;;;;;;5130365;27;20451;-75
2023/01/15 15:59:31;;;;;;;10.40;10.00;;;6.20;99.90;;;;;;5130599;27;20518;-75
2023/01/15 16:02:01;;;;;;;10.00;9.60;;;6.20;99.90;;;;;;5131142;27;20468;-75
2023/01/15 16:04:28;;;;;;;10.00;9.70;;;6.20;99.90;;;;;;5131077;27;20451;-75
2023/01/15 16:06:55;;;;;;;9.40;9.10;;;6.20;99.90;;;;;;5131196;27;20927;-75
2023/01/15 16:09:23;;;;;;;9.70;8.97;;;6.10;99.90;;;;;;5131353;27;20939;-75
2023/01/15 16:11:51;;;;;;;10.07;9.77;;;6.20;99.90;;;;;;5130794;27;21002;-74
2023/01/15 16:14:19;;;;;;;9.10;8.80;;;6.10;99.90;;;;;;5130673;27;20456;-74
2023/01/15 16:16:49;;;;;;;9.20;8.90;;;6.00;99.90;;;;;;5130862;27;20556;-74
2023/01/15 16:19:21;;;;;;;8.67;8.17;;;6.00;99.90;;;;;;5130500;27;20576;-74
2023/01/15 16:21:48;;;;;;;8.80;8.33;;;6.00;99.90;;;;;;5130409;27;20448;-74
2023/01/15 16:24:27;;;;;;;10.13;9.50;;;6.00;99.90;;;;;;5130653;27;20448;-74
2023/01/15 16:26:59;;;;;;;9.30;9.00;;;6.00;99.90;;;;;;5131174;27;20450;-74
2023/01/15 16:29:29;;;;;;;8.90;8.60;;;5.90;99.90;;;;;;5130492;27;20824;-74
2023/01/15 16:31:58;;;;;;;7.87;7.37;;;5.90;99.90;;;;;;5130205;27;20444;-74
2023/01/15 16:34:29;;;;;;;8.93;8.53;;;5.90;99.90;;;;;;5130364;27;20484;-73
2023/01/15 16:36:57;;;;;;;8.80;8.53;;;5.90;99.90;;;;;;5130741;27;20471;-74
2023/01/15 16:39:29;;;;;;;9.60;9.30;;;6.00;99.90;;;;;;5130726;27;20453;-73
2023/01/15 16:41:58;;;;;;;8.80;8.40;;;5.90;99.90;;;;;;5130032;27;20445;-76
2023/01/15 16:44:33;;;;;;;9.07;8.67;;;5.90;99.90;;;;;;5130630;27;20452;-73
2023/01/15 16:47:02;;;;;;;11.00;10.50;;;5.90;99.90;;;;;;5129817;27;20436;-73
2023/01/15 16:49:30;;;;;;;8.10;7.90;;;5.80;99.90;;;;;;5130236;27;21134;-73
2023/01/15 16:51:59;;;;;;;9.50;8.90;;;5.80;99.90;;;;;;5129912;27;20457;-74
2023/01/15 16:54:43;;;;;;;8.77;8.47;;;5.80;99.90;;;;;;5130424;27;20449;-74
2023/01/15 16:57:30;;;;;;;8.83;8.17;;;5.80;99.90;;;;;;5130191;27;20463;-74
2023/01/15 17:00:00;;;;;;;8.30;8.00;;;5.80;99.90;;;;;;5129944;27;20440;-74
2023/01/15 17:02:34;;;;;;;9.50;9.20;;;5.80;99.90;;;;;;5127839;27;20440;-73
2023/01/15 17:05:01;;;;;;;9.50;9.20;;;5.70;99.90;;;;;;5117028;27;20504;-74
2023/01/15 17:07:35;;;;;;;9.97;9.57;;;5.70;99.90;;;;;;5106259;28;20441;-74
2023/01/15 17:10:04;;;;;;;9.50;9.00;;;5.70;99.90;;;;;;5109009;28;20445;-75
2023/01/15 17:12:34;;;;;;;9.37;8.97;;;5.70;99.90;;;;;;5109003;28;20517;-75
2023/01/15 17:15:38;;;;;;;9.30;8.80;;;5.60;99.90;;;;;;5109087;28;20458;-75
2023/01/15 17:18:37;;;;;;;9.30;9.00;;;5.60;99.90;;;;;;5109537;28;20453;-75
2023/01/15 17:21:04;;;;;;;10.03;9.50;;;5.60;99.90;;;;;;5006285;28;20456;-73
2023/01/15 17:23:35;;;;;;;9.43;9.13;;;5.50;99.90;;;;;;5085079;28;20630;-74
2023/01/15 17:26:04;;;;;;;9.87;9.30;;;5.60;99.90;;;;;;5108802;28;20441;-74
2023/01/15 17:28:30;;;;;;;9.60;9.20;;;5.50;99.90;;;;;;5109093;28;20836;-74
2023/01/15 17:31:02;;;;;;;9.57;9.20;;;5.50;99.90;;;;;;5109136;28;20449;-73
2023/01/15 17:33:28;;;;;;;10.07;9.47;;;5.50;99.90;;;;;;5108819;28;20489;-74
2023/01/15 17:36:00;;;;;;;9.03;8.63;;;5.50;99.90;;;;;;5108731;28;20446;-74
2023/01/15 17:38:27;;;;;;;8.93;8.53;;;5.40;99.90;;;;;;5109123;28;20457;-73
2023/01/15 17:40:56;;;;;;;9.93;9.50;;;5.40;99.90;;;;;;5109370;28;20449;-74
2023/01/15 17:43:23;;;;;;;10.77;9.90;;;5.40;99.90;;;;;;5108922;28;20456;-74
2023/01/15 17:45:49;;;;;;;8.93;8.60;;;5.30;99.90;;;;;;5108765;28;20444;-74
2023/01/15 17:48:17;;;;;;;10.07;9.57;;;5.30;99.90;;;;;;5108756;28;20807;-74
2023/01/15 17:50:44;;;;;;;9.07;8.63;;;5.40;99.90;;;;;;5108585;28;20540;-73
2023/01/15 17:53:12;;;;;;;9.90;9.40;;;5.30;99.90;;;;;;5108624;28;20485;-73
